Airfield :
LOGIN :

Register | Disclaimer

   EN    FR    IT 

 










Legend :    VFR   Marginal VFR   IFR   Intensive IFR   Very Intensive IFR
Visi :
Ceiling :
>= 8 km
>= 3000ft
5 to 8 km
1000 to 3000 ft
1500m to 5 km
500 to 1000 ft
800 to 1500m
200 to 500 ft
< 800m
< 200 ft
Symbols :   Thunderstorms  Fog  Heavy snow  Heavy precipitations  Wind > 20 kt
SIGMETs :     Misc.  Thunderstorms  Icing  Turbulence  Mountain Waves  Volcanic Ashes






- Airport Elevation : 587 ft
- IATA code : XCR


LFOK - Chalons Vatry

CURRENT METAR :
  • 121500Z AUTO VRB03KT CAVOK 35/16 Q1011 NOSIG

EXPIRED METARs :
  • 121430Z AUTO 12006KT 360V170 CAVOK 35/17 Q1012 NOSIG
  • 121400Z AUTO 11005KT 070V150 CAVOK 35/17 Q1012 NOSIG
  • 121330Z AUTO 11006KT 020V170 CAVOK 35/17 Q1012 NOSIG
  • 121300Z AUTO 10006KT 050V140 CAVOK 34/16 Q1012 NOSIG
  • 121230Z AUTO 11007KT 360V170 CAVOK 34/16 Q1013 NOSIG

TAF TAF LFOK
Valid from the 12 at 12:00 until the 13 at 12:00 UTC


121100Z 1212/1312 19010KT CAVOK
TEMPO 1217/1220 VRB20G35KT 3000 TSRAGS BKN070CB
PROB30 1300/1305 OVC007



MET'MAP, your aeronautical weather chart ! - Copyright ORBIFLY December 2007 - Disclaimer

ORBIFLY MET'MAP TEAM :

Programming & Development : Alexandra Zaïnal
Concept & original design : Baudouin d'Aumeries
Assistance for programming : Marc-Olivier Méhu
Technical & hardware support : Manuel Goepfert

Contact : metmap@orbifly.com




SOURCES & CREDITS :

   NOAA